Hlavní strana
METAR-TAF:

METAR-TAF

Letiště :

Shelby, Severní Karolína, Spojené státy americké

zeměpisná šířka: 35-15N, zeměpisná délka: 081-36W, výška: 258 m

Aktuální stav počasí

Zpráva byla vytvořena před 34 minutami, v 10:40 UTC
Bezvětří
Teplota 19°C
Vlhkost vzduchu 100%
Tlak 1021 hPa
Viditelnost: 0.8 km
mlha

METAR: KEHO 241040Z AUTO 00000KT 1/2SM FG VV005 19/19 A3014 RMK AO2 T01900190

Čas: 07:14 (11:14 UTC)


TAF: chybějící

Stav a předpovědi počasí z více než 4 000 letišť (zprávy METAR a TAF).

Červené a žluté tečky na mapě představují dostupné meteorologické stanice.

Když kurzor umístíte na tečku, zobrazí se název stanice.

Pak kliknutím zobrazíte stav a předpověď počasí.

Chcete-li změnit mapu, kliknutím na zelené tlačítko se znaménkem +mapu přiblížíte, kliknutím na zelené tlačítko se znaménkem – mapu oddálíte a kliknutím na zelené šipky přejdete na sousední mapy.


METAR-TAF: